sensor_id;sensor_type;location;lat;lon;timestamp;pressure;altitude;pressure_sealevel;temperature;humidity
70690;BME280;58267;51.156;17.044;2023-01-28T00:08:41;101005.27;;;5.14;43.62
70690;BME280;58267;51.156;17.044;2023-01-28T00:11:07;101008.01;;;4.80;43.86
70690;BME280;58267;51.156;17.044;2023-01-28T00:13:32;101003.39;;;4.88;43.85
70690;BME280;58267;51.156;17.044;2023-01-28T00:15:58;101000.93;;;4.90;43.66
70690;BME280;58267;51.156;17.044;2023-01-28T00:18:23;101003.29;;;4.92;43.65
70690;BME280;58267;51.156;17.044;2023-01-28T00:20:56;101002.89;;;4.43;44.41
70690;BME280;58267;51.156;17.044;2023-01-28T00:23:18;101001.26;;;4.66;44.13
70690;BME280;58267;51.156;17.044;2023-01-28T00:25:43;101002.65;;;4.24;44.73
70690;BME280;58267;51.156;17.044;2023-01-28T00:28:09;101000.10;;;3.40;46.46
70690;BME280;58267;51.156;17.044;2023-01-28T00:30:34;100999.90;;;3.21;46.93
70690;BME280;58267;51.156;17.044;2023-01-28T00:32:59;101001.59;;;2.96;48.08
70690;BME280;58267;51.156;17.044;2023-01-28T00:35:25;100998.33;;;3.46;47.24
70690;BME280;58267;51.156;17.044;2023-01-28T00:37:50;100997.79;;;3.27;47.84
70690;BME280;58267;51.156;17.044;2023-01-28T00:40:16;100999.45;;;3.03;48.44
70690;BME280;58267;51.156;17.044;2023-01-28T00:42:41;101004.59;;;1.45;51.60
70690;BME280;58267;51.156;17.044;2023-01-28T00:45:08;101001.98;;;1.62;51.83
70690;BME280;58267;51.156;17.044;2023-01-28T00:47:32;101000.17;;;0.93;52.47
70690;BME280;58267;51.156;17.044;2023-01-28T00:49:58;100992.73;;;2.09;50.23
70690;BME280;58267;51.156;17.044;2023-01-28T00:52:24;100985.40;;;2.92;48.96
70690;BME280;58267;51.156;17.044;2023-01-28T00:54:50;100983.34;;;3.39;47.85
70690;BME280;58267;51.156;17.044;2023-01-28T00:57:15;100982.03;;;3.53;47.00
70690;BME280;58267;51.156;17.044;2023-01-28T00:59:41;100981.72;;;2.51;47.99
70690;BME280;58267;51.156;17.044;2023-01-28T01:02:06;100979.06;;;2.74;48.16
70690;BME280;58267;51.156;17.044;2023-01-28T01:04:32;100974.33;;;3.18;47.86
70690;BME280;58267;51.156;17.044;2023-01-28T01:06:58;100978.78;;;3.18;46.98
70690;BME280;58267;51.156;17.044;2023-01-28T01:09:23;100987.14;;;2.93;48.20
70690;BME280;58267;51.156;17.044;2023-01-28T01:11:48;100989.13;;;2.97;47.94
70690;BME280;58267;51.156;17.044;2023-01-28T01:14:14;100987.45;;;2.93;48.18
70690;BME280;58267;51.156;17.044;2023-01-28T01:16:39;100992.87;;;3.38;47.15
70690;BME280;58267;51.156;17.044;2023-01-28T01:19:05;100999.75;;;3.21;46.76
70690;BME280;58267;51.156;17.044;2023-01-28T01:21:31;101001.30;;;3.02;47.92
70690;BME280;58267;51.156;17.044;2023-01-28T01:23:56;101008.72;;;2.19;49.33
70690;BME280;58267;51.156;17.044;2023-01-28T01:26:22;101014.04;;;1.83;50.40
70690;BME280;58267;51.156;17.044;2023-01-28T01:28:47;101016.46;;;1.15;51.35
70690;BME280;58267;51.156;17.044;2023-01-28T01:31:14;101015.21;;;0.84;52.96
70690;BME280;58267;51.156;17.044;2023-01-28T01:33:38;101019.01;;;0.29;54.49
70690;BME280;58267;51.156;17.044;2023-01-28T01:36:04;101023.08;;;1.66;51.96
70690;BME280;58267;51.156;17.044;2023-01-28T01:38:29;101025.28;;;0.84;53.52
70690;BME280;58267;51.156;17.044;2023-01-28T01:40:56;101029.29;;;0.38;54.19
70690;BME280;58267;51.156;17.044;2023-01-28T01:45:48;101038.67;;;0.38;54.67
70690;BME280;58267;51.156;17.044;2023-01-28T01:48:15;101037.25;;;-0.00;55.40
70690;BME280;58267;51.156;17.044;2023-01-28T01:50:39;101036.63;;;-0.23;55.85
70690;BME280;58267;51.156;17.044;2023-01-28T01:53:06;101038.24;;;0.36;54.53
70690;BME280;58267;51.156;17.044;2023-01-28T01:55:30;101038.46;;;1.03;53.22
70690;BME280;58267;51.156;17.044;2023-01-28T01:57:56;101044.15;;;2.27;50.64
70690;BME280;58267;51.156;17.044;2023-01-28T02:00:19;101043.71;;;0.66;53.10
70690;BME280;58267;51.156;17.044;2023-01-28T02:02:46;101042.14;;;0.90;52.21
70690;BME280;58267;51.156;17.044;2023-01-28T02:05:12;101042.67;;;0.09;54.68
70690;BME280;58267;51.156;17.044;2023-01-28T02:07:36;101043.68;;;-0.34;55.93
70690;BME280;58267;51.156;17.044;2023-01-28T02:10:00;101041.42;;;-0.42;56.00
70690;BME280;58267;51.156;17.044;2023-01-28T02:12:29;101043.63;;;0.78;54.06
70690;BME280;58267;51.156;17.044;2023-01-28T02:14:55;101038.48;;;0.69;53.75
70690;BME280;58267;51.156;17.044;2023-01-28T02:17:16;101042.25;;;0.46;53.75
70690;BME280;58267;51.156;17.044;2023-01-28T02:19:45;101047.50;;;0.31;53.95
70690;BME280;58267;51.156;17.044;2023-01-28T02:22:26;101042.52;;;-0.08;54.79
70690;BME280;58267;51.156;17.044;2023-01-28T02:27:11;101046.60;;;-0.07;54.65
70690;BME280;58267;51.156;17.044;2023-01-28T02:29:28;101049.25;;;0.46;53.77
70690;BME280;58267;51.156;17.044;2023-01-28T02:31:53;101044.80;;;-0.04;55.11
70690;BME280;58267;51.156;17.044;2023-01-28T02:34:21;101045.89;;;1.21;53.54
70690;BME280;58267;51.156;17.044;2023-01-28T02:36:44;101049.88;;;0.75;53.99
70690;BME280;58267;51.156;17.044;2023-01-28T02:39:08;101049.01;;;1.36;52.03
70690;BME280;58267;51.156;17.044;2023-01-28T02:41:33;101047.72;;;1.40;51.80
70690;BME280;58267;51.156;17.044;2023-01-28T02:43:56;101048.54;;;0.54;52.81
70690;BME280;58267;51.156;17.044;2023-01-28T02:48:47;101050.02;;;1.22;52.08
70690;BME280;58267;51.156;17.044;2023-01-28T02:51:21;101050.98;;;0.90;52.62
70690;BME280;58267;51.156;17.044;2023-01-28T02:53:45;101051.25;;;1.92;50.65
70690;BME280;58267;51.156;17.044;2023-01-28T02:56:13;101050.62;;;0.68;52.06
70690;BME280;58267;51.156;17.044;2023-01-28T02:58:36;101051.74;;;-0.54;56.16
70690;BME280;58267;51.156;17.044;2023-01-28T03:01:04;101049.31;;;0.87;52.61
70690;BME280;58267;51.156;17.044;2023-01-28T03:03:25;101051.43;;;0.32;53.37
70690;BME280;58267;51.156;17.044;2023-01-28T03:05:51;101054.07;;;0.02;54.46
70690;BME280;58267;51.156;17.044;2023-01-28T03:08:13;101055.14;;;0.44;54.17
70690;BME280;58267;51.156;17.044;2023-01-28T03:10:38;101051.64;;;1.68;51.18
70690;BME280;58267;51.156;17.044;2023-01-28T03:13:04;101050.91;;;1.43;50.99
70690;BME280;58267;51.156;17.044;2023-01-28T03:15:32;101058.48;;;0.30;53.74
70690;BME280;58267;51.156;17.044;2023-01-28T03:17:59;101058.25;;;0.73;54.21
70690;BME280;58267;51.156;17.044;2023-01-28T03:20:21;101060.39;;;-0.02;55.55
70690;BME280;58267;51.156;17.044;2023-01-28T03:22:48;101054.59;;;0.56;53.28
70690;BME280;58267;51.156;17.044;2023-01-28T03:25:11;101056.71;;;-0.38;55.00
70690;BME280;58267;51.156;17.044;2023-01-28T03:27:41;101057.33;;;0.95;53.10
70690;BME280;58267;51.156;17.044;2023-01-28T03:30:05;101059.42;;;-0.00;54.09
70690;BME280;58267;51.156;17.044;2023-01-28T03:32:27;101056.04;;;0.00;54.95
70690;BME280;58267;51.156;17.044;2023-01-28T03:34:53;101058.32;;;-0.16;55.44
70690;BME280;58267;51.156;17.044;2023-01-28T03:37:18;101060.34;;;-1.02;57.45
70690;BME280;58267;51.156;17.044;2023-01-28T03:39:43;101059.86;;;0.14;54.55
70690;BME280;58267;51.156;17.044;2023-01-28T03:42:11;101057.50;;;1.38;51.67
70690;BME280;58267;51.156;17.044;2023-01-28T03:44:33;101060.70;;;-0.62;56.30
70690;BME280;58267;51.156;17.044;2023-01-28T03:46:59;101066.25;;;-1.05;57.50
70690;BME280;58267;51.156;17.044;2023-01-28T03:49:24;101064.98;;;-0.29;56.16
70690;BME280;58267;51.156;17.044;2023-01-28T03:51:50;101069.67;;;-1.00;57.76
70690;BME280;58267;51.156;17.044;2023-01-28T03:54:15;101067.17;;;0.15;55.63
70690;BME280;58267;51.156;17.044;2023-01-28T03:56:42;101064.03;;;0.59;53.87
70690;BME280;58267;51.156;17.044;2023-01-28T03:59:07;101061.40;;;1.24;51.90
70690;BME280;58267;51.156;17.044;2023-01-28T04:01:32;101066.10;;;-0.15;54.91
70690;BME280;58267;51.156;17.044;2023-01-28T04:03:58;101069.16;;;-1.27;57.93
70690;BME280;58267;51.156;17.044;2023-01-28T04:06:23;101075.07;;;-1.85;59.92
70690;BME280;58267;51.156;17.044;2023-01-28T04:08:48;101068.86;;;-0.59;56.76
70690;BME280;58267;51.156;17.044;2023-01-28T04:11:14;101069.40;;;0.33;54.16
70690;BME280;58267;51.156;17.044;2023-01-28T04:13:39;101069.22;;;1.33;51.78
70690;BME280;58267;51.156;17.044;2023-01-28T04:16:05;101073.88;;;0.41;53.40
70690;BME280;58267;51.156;17.044;2023-01-28T04:18:30;101076.75;;;1.18;52.78
70690;BME280;58267;51.156;17.044;2023-01-28T04:20:55;101077.91;;;0.31;53.25
70690;BME280;58267;51.156;17.044;2023-01-28T04:23:20;101076.81;;;0.40;53.33
70690;BME280;58267;51.156;17.044;2023-01-28T04:25:49;101078.07;;;-1.04;55.80
70690;BME280;58267;51.156;17.044;2023-01-28T04:28:11;101078.18;;;-0.53;56.28
70690;BME280;58267;51.156;17.044;2023-01-28T04:30:38;101078.17;;;-0.03;54.19
70690;BME280;58267;51.156;17.044;2023-01-28T04:33:03;101079.67;;;0.23;53.73
70690;BME280;58267;51.156;17.044;2023-01-28T04:35:28;101082.42;;;0.86;52.30
70690;BME280;58267;51.156;17.044;2023-01-28T04:37:53;101084.95;;;0.72;52.32
70690;BME280;58267;51.156;17.044;2023-01-28T04:40:19;101091.24;;;0.20;53.83
70690;BME280;58267;51.156;17.044;2023-01-28T04:42:53;101085.51;;;0.79;52.29
70690;BME280;58267;51.156;17.044;2023-01-28T04:45:10;101086.93;;;1.75;50.30
70690;BME280;58267;51.156;17.044;2023-01-28T04:47:35;101090.66;;;2.12;49.40
70690;BME280;58267;51.156;17.044;2023-01-28T04:50:01;101094.31;;;0.83;51.90
70690;BME280;58267;51.156;17.044;2023-01-28T04:52:26;101093.76;;;1.04;51.18
70690;BME280;58267;51.156;17.044;2023-01-28T04:54:51;101100.00;;;0.62;51.85
70690;BME280;58267;51.156;17.044;2023-01-28T04:57:17;101097.55;;;1.18;51.08
70690;BME280;58267;51.156;17.044;2023-01-28T04:59:42;101106.45;;;-0.12;53.82
70690;BME280;58267;51.156;17.044;2023-01-28T05:02:09;101104.73;;;0.67;53.10
70690;BME280;58267;51.156;17.044;2023-01-28T05:04:34;101107.94;;;-0.79;54.76
70690;BME280;58267;51.156;17.044;2023-01-28T05:06:59;101112.39;;;-1.08;56.21
70690;BME280;58267;51.156;17.044;2023-01-28T05:09:24;101110.70;;;0.74;52.88
70690;BME280;58267;51.156;17.044;2023-01-28T05:11:50;101110.96;;;0.14;53.14
70690;BME280;58267;51.156;17.044;2023-01-28T05:14:15;101113.22;;;-1.00;54.98
70690;BME280;58267;51.156;17.044;2023-01-28T05:16:41;101111.31;;;-0.08;52.96
70690;BME280;58267;51.156;17.044;2023-01-28T05:19:07;101114.13;;;0.90;51.44
70690;BME280;58267;51.156;17.044;2023-01-28T05:21:32;101117.53;;;0.89;51.06
70690;BME280;58267;51.156;17.044;2023-01-28T05:23:58;101122.64;;;-0.06;52.89
70690;BME280;58267;51.156;17.044;2023-01-28T05:26:23;101125.48;;;-0.47;54.94
70690;BME280;58267;51.156;17.044;2023-01-28T05:28:49;101128.57;;;0.35;53.12
70690;BME280;58267;51.156;17.044;2023-01-28T05:31:14;101126.63;;;0.28;53.22
70690;BME280;58267;51.156;17.044;2023-01-28T05:33:40;101135.60;;;-1.52;57.44
70690;BME280;58267;51.156;17.044;2023-01-28T05:36:06;101134.50;;;-1.45;57.10
70690;BME280;58267;51.156;17.044;2023-01-28T05:38:31;101136.92;;;-1.29;56.77
70690;BME280;58267;51.156;17.044;2023-01-28T05:40:56;101129.50;;;-0.20;54.29
70690;BME280;58267;51.156;17.044;2023-01-28T05:43:22;101127.66;;;0.10;53.50
70690;BME280;58267;51.156;17.044;2023-01-28T05:45:47;101132.85;;;0.18;53.20
70690;BME280;58267;51.156;17.044;2023-01-28T05:48:13;101133.42;;;0.87;51.89
70690;BME280;58267;51.156;17.044;2023-01-28T05:50:39;101131.32;;;0.63;51.02
70690;BME280;58267;51.156;17.044;2023-01-28T05:53:05;101128.54;;;1.83;48.80
70690;BME280;58267;51.156;17.044;2023-01-28T05:55:30;101129.17;;;1.52;48.86
70690;BME280;58267;51.156;17.044;2023-01-28T05:57:55;101130.89;;;-0.05;51.31
70690;BME280;58267;51.156;17.044;2023-01-28T06:00:21;101132.52;;;-0.20;52.83
70690;BME280;58267;51.156;17.044;2023-01-28T06:02:47;101136.75;;;-0.92;54.78
70690;BME280;58267;51.156;17.044;2023-01-28T06:05:12;101135.01;;;0.15;52.28
70690;BME280;58267;51.156;17.044;2023-01-28T06:07:38;101142.99;;;-1.28;55.35
70690;BME280;58267;51.156;17.044;2023-01-28T06:10:04;101144.75;;;-1.21;56.30
70690;BME280;58267;51.156;17.044;2023-01-28T06:12:29;101150.71;;;-1.18;55.53
70690;BME280;58267;51.156;17.044;2023-01-28T06:14:54;101149.69;;;-1.20;55.42
70690;BME280;58267;51.156;17.044;2023-01-28T06:17:20;101147.08;;;0.30;52.37
70690;BME280;58267;51.156;17.044;2023-01-28T06:19:45;101148.34;;;0.95;50.12
70690;BME280;58267;51.156;17.044;2023-01-28T06:22:11;101149.73;;;0.59;50.27
70690;BME280;58267;51.156;17.044;2023-01-28T06:24:36;101149.00;;;0.17;51.65
70690;BME280;58267;51.156;17.044;2023-01-28T06:27:02;101148.44;;;0.58;51.22
70690;BME280;58267;51.156;17.044;2023-01-28T06:29:28;101145.69;;;1.27;49.22
70690;BME280;58267;51.156;17.044;2023-01-28T06:31:58;101148.55;;;1.99;47.92
70690;BME280;58267;51.156;17.044;2023-01-28T06:34:23;101152.18;;;0.61;49.83
70690;BME280;58267;51.156;17.044;2023-01-28T06:36:48;101153.33;;;0.79;49.91
70690;BME280;58267;51.156;17.044;2023-01-28T06:39:14;101157.57;;;-0.29;51.85
70690;BME280;58267;51.156;17.044;2023-01-28T06:41:39;101157.99;;;0.87;50.29
70690;BME280;58267;51.156;17.044;2023-01-28T06:44:05;101164.34;;;0.48;50.64
70690;BME280;58267;51.156;17.044;2023-01-28T06:46:30;101167.31;;;0.48;50.16
70690;BME280;58267;51.156;17.044;2023-01-28T06:48:55;101172.01;;;0.88;49.82
70690;BME280;58267;51.156;17.044;2023-01-28T06:51:21;101174.93;;;-0.20;51.65
70690;BME280;58267;51.156;17.044;2023-01-28T06:53:46;101177.64;;;-0.52;52.16
70690;BME280;58267;51.156;17.044;2023-01-28T06:56:12;101185.86;;;-1.49;55.25
70690;BME280;58267;51.156;17.044;2023-01-28T06:58:38;101187.13;;;-1.21;55.35
70690;BME280;58267;51.156;17.044;2023-01-28T07:01:04;101190.91;;;-0.95;54.38
70690;BME280;58267;51.156;17.044;2023-01-28T07:03:29;101188.08;;;-0.72;53.58
70690;BME280;58267;51.156;17.044;2023-01-28T07:05:55;101189.78;;;0.61;51.61
70690;BME280;58267;51.156;17.044;2023-01-28T07:08:20;101189.59;;;-0.13;52.16
70690;BME280;58267;51.156;17.044;2023-01-28T07:10:45;101196.45;;;-0.18;52.26
70690;BME280;58267;51.156;17.044;2023-01-28T07:13:11;101200.36;;;-0.41;53.20
70690;BME280;58267;51.156;17.044;2023-01-28T07:15:36;101210.29;;;-1.61;55.35
70690;BME280;58267;51.156;17.044;2023-01-28T07:18:02;101210.69;;;-0.75;53.89
70690;BME280;58267;51.156;17.044;2023-01-28T07:20:27;101207.14;;;0.31;51.15
70690;BME280;58267;51.156;17.044;2023-01-28T07:22:52;101210.25;;;-0.21;52.14
70690;BME280;58267;51.156;17.044;2023-01-28T07:25:18;101214.15;;;1.18;49.57
70690;BME280;58267;51.156;17.044;2023-01-28T07:27:48;101209.27;;;1.69;48.11
70690;BME280;58267;51.156;17.044;2023-01-28T07:30:09;101216.62;;;0.80;48.91
70690;BME280;58267;51.156;17.044;2023-01-28T07:32:33;101219.44;;;-0.26;51.19
70690;BME280;58267;51.156;17.044;2023-01-28T07:34:58;101216.37;;;0.74;50.29
70690;BME280;58267;51.156;17.044;2023-01-28T07:37:23;101214.43;;;0.73;50.48
70690;BME280;58267;51.156;17.044;2023-01-28T07:39:48;101221.79;;;-1.15;53.94
70690;BME280;58267;51.156;17.044;2023-01-28T07:42:14;101218.56;;;-0.87;54.17
70690;BME280;58267;51.156;17.044;2023-01-28T07:44:40;101215.27;;;-0.54;53.25
70690;BME280;58267;51.156;17.044;2023-01-28T07:47:05;101219.07;;;-0.92;53.96
70690;BME280;58267;51.156;17.044;2023-01-28T07:49:33;101211.41;;;-0.33;52.59
70690;BME280;58267;51.156;17.044;2023-01-28T07:51:56;101209.20;;;-0.02;51.36
70690;BME280;58267;51.156;17.044;2023-01-28T07:54:22;101210.04;;;0.39;51.52
70690;BME280;58267;51.156;17.044;2023-01-28T07:56:47;101209.10;;;0.66;49.79
70690;BME280;58267;51.156;17.044;2023-01-28T07:59:12;101211.54;;;1.28;49.14
70690;BME280;58267;51.156;17.044;2023-01-28T08:01:38;101210.00;;;1.81;47.87
70690;BME280;58267;51.156;17.044;2023-01-28T08:04:03;101216.86;;;0.26;49.99
70690;BME280;58267;51.156;17.044;2023-01-28T08:06:29;101219.40;;;1.69;47.65
70690;BME280;58267;51.156;17.044;2023-01-28T08:08:54;101227.65;;;-1.00;52.95
70690;BME280;58267;51.156;17.044;2023-01-28T08:11:24;101227.57;;;-1.45;54.69
70690;BME280;58267;51.156;17.044;2023-01-28T08:13:49;101223.12;;;-0.23;51.40
70690;BME280;58267;51.156;17.044;2023-01-28T08:16:14;101225.65;;;-0.12;51.98
70690;BME280;58267;51.156;17.044;2023-01-28T08:18:40;101233.78;;;-0.06;51.76
70690;BME280;58267;51.156;17.044;2023-01-28T08:21:05;101234.08;;;0.16;51.30
70690;BME280;58267;51.156;17.044;2023-01-28T08:23:33;101233.21;;;0.02;50.92
70690;BME280;58267;51.156;17.044;2023-01-28T08:26:00;101236.31;;;0.47;50.30
70690;BME280;58267;51.156;17.044;2023-01-28T08:28:26;101239.53;;;0.15;50.74
70690;BME280;58267;51.156;17.044;2023-01-28T08:30:51;101239.35;;;0.21;51.07
70690;BME280;58267;51.156;17.044;2023-01-28T08:33:17;101239.36;;;-0.52;52.06
70690;BME280;58267;51.156;17.044;2023-01-28T08:35:42;101243.67;;;-0.69;52.34
70690;BME280;58267;51.156;17.044;2023-01-28T08:38:09;101237.44;;;0.12;51.25
70690;BME280;58267;51.156;17.044;2023-01-28T08:40:34;101247.36;;;-1.34;54.61
70690;BME280;58267;51.156;17.044;2023-01-28T08:42:59;101243.46;;;0.22;51.72
70690;BME280;58267;51.156;17.044;2023-01-28T08:45:25;101244.81;;;-0.28;52.55
70690;BME280;58267;51.156;17.044;2023-01-28T08:47:50;101247.02;;;-0.76;53.25
70690;BME280;58267;51.156;17.044;2023-01-28T08:50:16;101245.65;;;-0.77;53.25
70690;BME280;58267;51.156;17.044;2023-01-28T08:52:41;101252.43;;;-1.33;54.24
70690;BME280;58267;51.156;17.044;2023-01-28T08:55:07;101250.60;;;-1.03;54.38
70690;BME280;58267;51.156;17.044;2023-01-28T08:57:32;101252.19;;;-1.99;55.68
70690;BME280;58267;51.156;17.044;2023-01-28T08:59:57;101252.35;;;-2.10;56.68
70690;BME280;58267;51.156;17.044;2023-01-28T09:02:23;101252.95;;;-0.93;54.75
70690;BME280;58267;51.156;17.044;2023-01-28T09:04:48;101242.51;;;-0.11;52.49
70690;BME280;58267;51.156;17.044;2023-01-28T09:07:13;101250.14;;;-0.72;53.40
70690;BME280;58267;51.156;17.044;2023-01-28T09:09:38;101248.88;;;-2.11;56.39
70690;BME280;58267;51.156;17.044;2023-01-28T09:12:04;101249.29;;;-2.82;57.84
70690;BME280;58267;51.156;17.044;2023-01-28T09:14:29;101254.29;;;-0.95;54.69
70690;BME280;58267;51.156;17.044;2023-01-28T09:16:55;101256.47;;;-1.59;55.74
70690;BME280;58267;51.156;17.044;2023-01-28T09:19:20;101258.81;;;-2.19;56.93
70690;BME280;58267;51.156;17.044;2023-01-28T09:21:50;101265.78;;;-1.47;55.96
70690;BME280;58267;51.156;17.044;2023-01-28T09:24:11;101272.04;;;-1.14;54.62
70690;BME280;58267;51.156;17.044;2023-01-28T09:26:37;101272.86;;;-0.94;54.28
70690;BME280;58267;51.156;17.044;2023-01-28T09:29:07;101272.73;;;-1.80;56.57
70690;BME280;58267;51.156;17.044;2023-01-28T09:31:27;101270.52;;;-1.94;56.17
70690;BME280;58267;51.156;17.044;2023-01-28T09:33:53;101274.68;;;-1.96;56.42
70690;BME280;58267;51.156;17.044;2023-01-28T09:36:18;101280.86;;;-2.69;58.93
70690;BME280;58267;51.156;17.044;2023-01-28T09:38:45;101278.79;;;-2.94;58.99
70690;BME280;58267;51.156;17.044;2023-01-28T09:41:24;101276.40;;;-2.07;57.24
70690;BME280;58267;51.156;17.044;2023-01-28T09:43:51;101281.51;;;-2.82;58.81
70690;BME280;58267;51.156;17.044;2023-01-28T09:46:07;101281.24;;;-2.83;59.37
70690;BME280;58267;51.156;17.044;2023-01-28T09:48:33;101278.28;;;-2.40;57.63
70690;BME280;58267;51.156;17.044;2023-01-28T09:50:55;101279.70;;;-1.49;55.79
70690;BME280;58267;51.156;17.044;2023-01-28T09:53:23;101281.26;;;-1.95;55.77
70690;BME280;58267;51.156;17.044;2023-01-28T09:55:47;101281.49;;;-2.43;56.98
70690;BME280;58267;51.156;17.044;2023-01-28T09:58:12;101285.63;;;-2.91;58.10
70690;BME280;58267;51.156;17.044;2023-01-28T10:00:41;101283.75;;;-2.03;56.28
70690;BME280;58267;51.156;17.044;2023-01-28T10:03:13;101283.24;;;-1.90;56.23
70690;BME280;58267;51.156;17.044;2023-01-28T10:05:33;101284.57;;;-1.00;53.94
70690;BME280;58267;51.156;17.044;2023-01-28T10:07:57;101284.01;;;-0.80;52.93
70690;BME280;58267;51.156;17.044;2023-01-28T10:10:21;101281.40;;;-1.40;54.41
70690;BME280;58267;51.156;17.044;2023-01-28T10:12:57;101277.30;;;-1.74;54.73
70690;BME280;58267;51.156;17.044;2023-01-28T10:15:20;101279.91;;;-1.35;54.38
70690;BME280;58267;51.156;17.044;2023-01-28T10:17:38;101277.01;;;-0.64;53.11
70690;BME280;58267;51.156;17.044;2023-01-28T10:20:02;101275.63;;;-0.24;51.77
70690;BME280;58267;51.156;17.044;2023-01-28T10:22:28;101276.67;;;-1.91;54.80
70690;BME280;58267;51.156;17.044;2023-01-28T10:24:53;101277.41;;;-1.27;54.34
70690;BME280;58267;51.156;17.044;2023-01-28T10:27:19;101272.95;;;-0.80;52.87
70690;BME280;58267;51.156;17.044;2023-01-28T10:29:41;101273.10;;;-0.94;52.55
70690;BME280;58267;51.156;17.044;2023-01-28T10:32:20;101276.01;;;-1.91;55.31
70690;BME280;58267;51.156;17.044;2023-01-28T10:34:32;101275.41;;;-0.90;54.44
70690;BME280;58267;51.156;17.044;2023-01-28T10:36:57;101271.68;;;0.79;55.11
70690;BME280;58267;51.156;17.044;2023-01-28T10:39:24;101271.46;;;1.07;53.00
70690;BME280;58267;51.156;17.044;2023-01-28T10:41:48;101270.56;;;0.93;49.60
70690;BME280;58267;51.156;17.044;2023-01-28T10:44:17;101280.72;;;-1.16;52.27
70690;BME280;58267;51.156;17.044;2023-01-28T10:46:42;101280.12;;;-1.03;52.75
70690;BME280;58267;51.156;17.044;2023-01-28T10:49:12;101277.87;;;-0.91;52.44
70690;BME280;58267;51.156;17.044;2023-01-28T10:51:34;101276.72;;;-1.09;52.94
70690;BME280;58267;51.156;17.044;2023-01-28T10:53:57;101277.09;;;-1.06;52.79
70690;BME280;58267;51.156;17.044;2023-01-28T10:56:25;101279.21;;;-2.11;54.75
70690;BME280;58267;51.156;17.044;2023-01-28T10:58:56;101280.73;;;-2.25;55.55
70690;BME280;58267;51.156;17.044;2023-01-28T11:01:13;101284.31;;;-3.27;57.23
70690;BME280;58267;51.156;17.044;2023-01-28T11:03:50;101279.78;;;-1.78;54.74
70690;BME280;58267;51.156;17.044;2023-01-28T11:06:04;101282.69;;;-2.35;55.54
70690;BME280;58267;51.156;17.044;2023-01-28T11:08:30;101285.10;;;-2.78;56.34
70690;BME280;58267;51.156;17.044;2023-01-28T11:10:56;101285.68;;;-2.34;55.46
70690;BME280;58267;51.156;17.044;2023-01-28T11:13:22;101282.10;;;-2.36;55.29
70690;BME280;58267;51.156;17.044;2023-01-28T11:15:47;101280.73;;;-2.00;53.82
70690;BME280;58267;51.156;17.044;2023-01-28T11:18:17;101281.64;;;-0.91;52.62
70690;BME280;58267;51.156;17.044;2023-01-28T11:20:39;101279.39;;;-1.03;52.14
70690;BME280;58267;51.156;17.044;2023-01-28T11:23:01;101273.18;;;-1.06;52.49
70690;BME280;58267;51.156;17.044;2023-01-28T11:25:30;101268.42;;;-1.46;52.90
70690;BME280;58267;51.156;17.044;2023-01-28T11:27:53;101267.28;;;-1.18;51.53
70690;BME280;58267;51.156;17.044;2023-01-28T11:30:22;101266.94;;;-1.80;52.98
70690;BME280;58267;51.156;17.044;2023-01-28T11:32:42;101271.92;;;-2.89;55.47
70690;BME280;58267;51.156;17.044;2023-01-28T11:37:34;101276.23;;;-1.11;52.53
70690;BME280;58267;51.156;17.044;2023-01-28T11:40:02;101275.09;;;-1.29;52.15
70690;BME280;58267;51.156;17.044;2023-01-28T11:42:24;101276.05;;;-2.01;53.29
70690;BME280;58267;51.156;17.044;2023-01-28T11:44:50;101271.91;;;-1.67;52.61
70690;BME280;58267;51.156;17.044;2023-01-28T11:47:25;101277.61;;;-1.41;51.45
70690;BME280;58267;51.156;17.044;2023-01-28T11:49:53;101279.77;;;-1.77;51.91
70690;BME280;58267;51.156;17.044;2023-01-28T11:52:13;101276.39;;;-2.07;52.74
70690;BME280;58267;51.156;17.044;2023-01-28T11:54:42;101282.47;;;-3.02;53.85
70690;BME280;58267;51.156;17.044;2023-01-28T11:57:08;101283.86;;;-2.57;53.56
70690;BME280;58267;51.156;17.044;2023-01-28T12:01:54;101287.73;;;-2.53;53.30
70690;BME280;58267;51.156;17.044;2023-01-28T12:04:22;101282.54;;;-3.04;53.53
70690;BME280;58267;51.156;17.044;2023-01-28T12:06:49;101278.30;;;-2.04;51.29
70690;BME280;58267;51.156;17.044;2023-01-28T12:09:14;101282.72;;;-2.51;52.36
70690;BME280;58267;51.156;17.044;2023-01-28T12:11:37;101278.67;;;-1.93;51.35
70690;BME280;58267;51.156;17.044;2023-01-28T12:14:04;101279.43;;;-0.89;48.98
70690;BME280;58267;51.156;17.044;2023-01-28T12:16:31;101277.36;;;-0.24;47.18
70690;BME280;58267;51.156;17.044;2023-01-28T12:19:01;101283.60;;;-0.86;47.47
70690;BME280;58267;51.156;17.044;2023-01-28T12:21:19;101284.48;;;-2.52;50.61
70690;BME280;58267;51.156;17.044;2023-01-28T12:23:49;101278.65;;;-1.37;49.61
70690;BME280;58267;51.156;17.044;2023-01-28T12:26:08;101278.13;;;-0.63;47.81
70690;BME280;58267;51.156;17.044;2023-01-28T12:28:37;101265.88;;;0.03;46.17
70690;BME280;58267;51.156;17.044;2023-01-28T12:31:04;101275.18;;;-0.49;46.50
70690;BME280;58267;51.156;17.044;2023-01-28T12:35:53;101278.48;;;-2.45;50.21
70690;BME280;58267;51.156;17.044;2023-01-28T12:38:14;101276.98;;;-1.14;48.68
70690;BME280;58267;51.156;17.044;2023-01-28T12:40:46;101270.27;;;0.16;46.29
70690;BME280;58267;51.156;17.044;2023-01-28T12:43:04;101270.58;;;-0.66;46.88
70690;BME280;58267;51.156;17.044;2023-01-28T12:45:28;101270.17;;;-1.83;49.37
70690;BME280;58267;51.156;17.044;2023-01-28T12:47:54;101274.50;;;-2.06;50.43
70690;BME280;58267;51.156;17.044;2023-01-28T12:50:20;101279.55;;;-1.38;49.13
70690;BME280;58267;51.156;17.044;2023-01-28T12:52:45;101285.18;;;-1.62;49.60
70690;BME280;58267;51.156;17.044;2023-01-28T12:55:14;101279.97;;;-2.50;50.22
70690;BME280;58267;51.156;17.044;2023-01-28T12:57:34;101277.83;;;-0.98;48.14